This is the latest recevied weather packets stored in our database for station/object SP1BMW-13. If no packets are shown the sender has not sent any weather packets the latest 10 day(s).
| Time | Temp. | Humidity | Pressure | Rain* | Wind** | Luminosity | Snow |
|---|---|---|---|---|---|---|---|
| 1777150005 | 8.89° C | 62% | 1011.3 hPa | 0 mm | 1.79 m/s, 309° | 0 W/m² | - |
| 1777149945 | 8.89° C | 62% | 1011.2 hPa | 0 mm | 2.68 m/s, 266° | 0 W/m² | - |
| 1777149886 | 8.89° C | 62% | 1011 hPa | 0 mm | 2.68 m/s, 239° | 0 W/m² | - |
| 1777149825 | 8.89° C | 62% | 1011.1 hPa | 0 mm | 2.24 m/s, 332° | 0 W/m² | - |
| 1777149766 | 8.89° C | 62% | 1011.2 hPa | 0 mm | 2.24 m/s, 258° | 0 W/m² | - |
| 1777149705 | 8.89° C | 61% | 1011 hPa | 0 mm | 1.34 m/s, 208° | 0 W/m² | - |
| 1777149645 | 8.89° C | 61% | 1011.2 hPa | 0 mm | 3.13 m/s, 332° | 0 W/m² | - |
| 1777149585 | 8.89° C | 61% | 1011 hPa | 0 mm | 1.79 m/s, 223° | 0 W/m² | - |
| 1777149526 | 8.89° C | 61% | 1011 hPa | 0 mm | 1.34 m/s, 270° | 0 W/m² | - |
| 1777149466 | 8.89° C | 61% | 1011.1 hPa | 0 mm | 3.58 m/s, 325° | 0 W/m² | - |
| 1777149405 | 8.89° C | 61% | 1011.1 hPa | 0 mm | 1.79 m/s, 128° | 0 W/m² | - |
| 1777149345 | 8.89° C | 61% | 1011.1 hPa | 0 mm | 4.02 m/s, 308° | 0 W/m² | - |
| 1777149285 | 8.33° C | 61% | 1011 hPa | 0 mm | 1.79 m/s, 279° | 0 W/m² | - |
| 1777149226 | 8.33° C | 61% | 1011 hPa | 0 mm | 2.68 m/s, 248° | 0 W/m² | - |
| 1777149165 | 8.33° C | 61% | 1010.9 hPa | 0 mm | 4.02 m/s, 330° | 0 W/m² | - |
| 1777149106 | 8.33° C | 61% | 1010.8 hPa | 0 mm | 1.79 m/s, 283° | 0 W/m² | - |
| 1777149046 | 8.33° C | 61% | 1010.8 hPa | 0 mm | 2.68 m/s, 152° | 0 W/m² | - |
| 1777148986 | 8.33° C | 61% | 1010.8 hPa | 0 mm | 1.79 m/s, 250° | 0 W/m² | - |
| 1777148926 | 8.89° C | 61% | 1010.9 hPa | 0 mm | 4.47 m/s, 280° | 0 W/m² | - |
| 1777148866 | 8.89° C | 60% | 1010.8 hPa | 0 mm | 0.89 m/s, 83° | 0 W/m² | - |
| 1777148806 | 8.89° C | 60% | 1010.8 hPa | 0 mm | 1.79 m/s, 251° | 0 W/m² | - |
| 1777148746 | 8.89° C | 60% | 1010.7 hPa | 0 mm | 1.79 m/s, 267° | 0 W/m² | - |
| 1777148686 | 8.89° C | 60% | 1010.7 hPa | 0 mm | 1.79 m/s, 319° | 0 W/m² | - |
| 1777148626 | 8.89° C | 60% | 1010.6 hPa | 0 mm | 2.24 m/s, 264° | 0 W/m² | - |
| 1777148566 | 8.89° C | 60% | 1010.6 hPa | 0 mm | 4.02 m/s, 291° | 0 W/m² | - |
* Rain latest hour (hover to see other rain measurements)
** Current wind speed in m/s (hover to see current wind gust speed)